A- A+ FrançaisEnglishEspañol中国

最近的 KBNA NashvilleAYGA GorokaLFBT Tarbes-Lourdes-PyrénéesOAIX Bagram Air BaseOOSA SalalahGCXO Tenerife Norte

飞行员的航空天气,使用METAR(气象机场报告)进行的飞行准备和TAF(终端机场预报:针对以下情况的短期天气预报)航空)。 以及其他资源,例如VAC(目视进近图)和NOTAM(通知飞行员)以进行预试飞行.

METAR, TAF, VAC, NOTAM Guaymarel机场 (Colombie) / OACI SKGY

它位于附近 Chía, Cota 在 3.7 km, Villa Rosa 在 3.9 km, Chia 在 5.2 km, San Hilario 在 7.7 km, La Mana 在 9.5 km, Las Tominejas 在 10 km, Tenjo 在 11 km, Bella Suiza 在 12 km, Tabio 在 12 km, Cajica 在 13 km,

机场的高度为 Guaymarel机场的

2557 m = 8389 ft

附近的机场Guaymarel机场的

跑道 Guaymarel机场的

目前的天气 Guaymarel机场的 - SKGY

nuages fragmentés
16°C

Vent 15 km/h

可提供5天天气预报 Cota 在 3.7 km, Villa Rosa 在 3.9 km, Chia 在 5.2 km, San Hilario 在 7.7 km, La Mana 在 9.5 km, Las Tominejas 在 10 km, Tenjo 在 11 km, Bella Suiza 在 12 km, Tabio 在 12 km, Cajica 在 13 km,

METAR Guaymarel机场的 - SKGY

SKGY 291500Z 11008KT 080V140 9000 OVC040 16/10 A3037

Guaymarel机场METAR解码 (Colombie)

SKGY机场发行的METAR日期2020年07月29日至15:00 GMT, 警告:此METAR已过期, 已于 15 天 9 小时 25 分钟.

可见度为9 km = 5.6 sm.

温度为16°C = 61 °F 露点为10°C = 50 °F 。 这相当于68%的相对湿度。.

QNH是1028 hPa = 30.36 inHg

的风8 kt = 15 km/h, 风向为110°.

云:多云4000 ft = 1220 m.

TAF Guaymarel机场的 - SKGY

没有TAF

Guaymarel机场的NOTAM

提供的NOTAM不能保证其时事性。 在将其用于飞行准备或在飞行期间使用之前,飞行员是唯一负责验证其有效性的人员。

没有通知

数据源